Time;durP1;ratioP1;P1;durP2;ratioP2;P2;SDS_P1;SDS_P2;PMS_P1;PMS_P2;Temp;Humidity;BMP_temperature;BMP_pressure;BME280_temperature;BME280_humidity;BME280_pressure;Samples;Min_cycle;Max_cycle;Signal;HPM_P1;HPM_P2
2023/04/03 00:00:50;;;;;;;2.10;1.60;;;;;;;;;;5024647;28;20214;-72
2023/04/03 00:03:18;;;;;;;1.80;1.33;;;;;;;;;;5019865;28;20212;-72
2023/04/03 00:05:45;;;;;;;2.20;1.60;;;;;;;;;;5023948;28;20203;-72
2023/04/03 00:08:12;;;;;;;1.97;1.60;;;;;;;;;;5020910;28;20227;-72
2023/04/03 00:10:39;;;;;;;2.07;1.40;;;;;;;;;;5020037;28;20211;-72
2023/04/03 00:13:08;;;;;;;1.53;1.30;;;;;;;;;;5021850;28;20203;-72
2023/04/03 00:15:36;;;;;;;2.23;1.63;;;;;;;;;;5012397;28;20220;-72
2023/04/03 00:18:04;;;;;;;2.33;1.70;;;;;;;;;;5019955;28;20201;-72
2023/04/03 00:20:31;;;;;;;2.07;1.73;;;;;;;;;;5021953;28;20205;-72
2023/04/03 00:22:58;;;;;;;1.73;1.50;;;;;;;;;;5026226;28;20209;-71
2023/04/03 00:25:26;;;;;;;2.17;1.80;;;;;;;;;;5018212;28;20212;-71
2023/04/03 00:27:53;;;;;;;2.27;1.67;;;;;;;;;;5018996;28;20232;-72
2023/04/03 00:30:23;;;;;;;3.27;1.60;;;;;;;;;;5017509;28;20204;-70
2023/04/03 00:32:50;;;;;;;2.03;1.63;;;;;;;;;;5017969;28;20208;-70
2023/04/03 00:35:19;;;;;;;1.60;1.50;;;;;;;;;;5022689;28;20215;-71
2023/04/03 00:37:46;;;;;;;1.50;1.40;;;;;;;;;;5020223;28;20214;-72
2023/04/03 00:40:14;;;;;;;1.93;1.50;;;;;;;;;;5018572;28;20205;-72
2023/04/03 00:42:42;;;;;;;2.00;1.67;;;;;;;;;;5022568;28;20212;-72
2023/04/03 00:45:28;;;;;;;2.17;1.67;;;;;;;;;;5020795;28;20212;-72
2023/04/03 00:47:56;;;;;;;2.27;1.60;;;;;;;;;;5021364;28;20223;-73
2023/04/03 00:50:23;;;;;;;2.97;1.70;;;;;;;;;;5022303;28;20200;-72
2023/04/03 00:52:50;;;;;;;3.07;1.87;;;;;;;;;;5018032;28;20208;-72
2023/04/03 00:55:17;;;;;;;2.43;1.33;;;;;;;;;;5020966;28;20208;-72
2023/04/03 00:57:46;;;;;;;1.47;1.37;;;;;;;;;;5014982;28;20212;-72
2023/04/03 01:00:15;;;;;;;1.73;1.50;;;;;;;;;;5020093;28;20200;-72
2023/04/03 01:02:44;;;;;;;1.80;1.40;;;;;;;;;;5020795;28;20204;-72
2023/04/03 01:05:12;;;;;;;1.63;1.40;;;;;;;;;;5020183;28;20209;-71
2023/04/03 01:07:40;;;;;;;2.13;1.57;;;;;;;;;;5023135;28;20219;-71
2023/04/03 01:10:08;;;;;;;2.10;1.50;;;;;;;;;;5018950;28;20224;-72
2023/04/03 01:12:37;;;;;;;1.60;1.50;;;;;;;;;;5018710;28;20211;-72
2023/04/03 01:15:06;;;;;;;1.50;1.40;;;;;;;;;;5022879;28;20201;-72
2023/04/03 01:17:35;;;;;;;1.90;1.33;;;;;;;;;;5019756;28;20204;-72
2023/04/03 01:20:19;;;;;;;2.20;1.50;;;;;;;;;;5019466;28;20208;-73
2023/04/03 01:22:53;;;;;;;1.50;1.40;;;;;;;;;;5020234;28;20205;-72
2023/04/03 01:25:20;;;;;;;1.87;1.50;;;;;;;;;;5022905;28;20208;-73
2023/04/03 01:27:47;;;;;;;3.53;1.40;;;;;;;;;;5021304;28;20239;-72
2023/04/03 01:30:15;;;;;;;2.23;1.40;;;;;;;;;;5022188;28;20224;-73
2023/04/03 01:32:44;;;;;;;2.20;1.40;;;;;;;;;;5023392;28;20212;-72
2023/04/03 01:35:11;;;;;;;1.83;1.40;;;;;;;;;;5024988;28;20196;-73
2023/04/03 01:37:38;;;;;;;1.47;1.37;;;;;;;;;;5024373;28;20211;-73
2023/04/03 01:40:06;;;;;;;3.27;1.40;;;;;;;;;;5028056;28;20204;-73
2023/04/03 01:42:34;;;;;;;2.43;1.60;;;;;;;;;;5025871;28;20208;-73
2023/04/03 01:45:01;;;;;;;8.20;1.70;;;;;;;;;;5027184;28;20226;-73
2023/04/03 01:47:28;;;;;;;2.87;1.50;;;;;;;;;;5025737;28;20208;-73
2023/04/03 01:49:56;;;;;;;1.50;1.40;;;;;;;;;;5022974;28;20220;-73
2023/04/03 01:52:24;;;;;;;1.50;1.40;;;;;;;;;;5023850;28;20204;-73
2023/04/03 01:54:51;;;;;;;1.40;1.23;;;;;;;;;;5021546;28;20204;-73
2023/04/03 01:57:18;;;;;;;2.60;1.40;;;;;;;;;;5023365;28;20209;-73
2023/04/03 01:59:45;;;;;;;1.50;1.40;;;;;;;;;;5022667;28;20208;-74
2023/04/03 02:02:14;;;;;;;1.47;1.37;;;;;;;;;;5025274;28;20208;-73
2023/04/03 02:04:41;;;;;;;2.83;1.40;;;;;;;;;;5019091;28;20255;-73
2023/04/03 02:07:09;;;;;;;1.83;1.50;;;;;;;;;;5025927;28;20212;-74
2023/04/03 02:09:37;;;;;;;3.13;1.57;;;;;;;;;;5019427;28;20220;-74
2023/04/03 02:12:04;;;;;;;2.77;1.50;;;;;;;;;;5018529;28;20219;-74
2023/04/03 02:14:31;;;;;;;1.63;1.43;;;;;;;;;;5022952;28;20211;-75
2023/04/03 02:16:58;;;;;;;1.63;1.50;;;;;;;;;;5023264;28;20220;-74
2023/04/03 02:19:25;;;;;;;2.07;1.50;;;;;;;;;;5021793;28;20207;-74
2023/04/03 02:21:52;;;;;;;1.40;1.30;;;;;;;;;;5026603;28;20259;-75
2023/04/03 02:24:21;;;;;;;2.60;1.40;;;;;;;;;;5023592;28;20200;-75
2023/04/03 02:26:48;;;;;;;2.00;1.23;;;;;;;;;;5022230;28;20207;-74
2023/04/03 02:29:15;;;;;;;2.30;1.30;;;;;;;;;;5025472;28;20228;-75
2023/04/03 02:31:42;;;;;;;1.90;1.40;;;;;;;;;;5017672;28;20211;-75
2023/04/03 02:34:10;;;;;;;1.90;1.47;;;;;;;;;;5021136;28;20204;-75
2023/04/03 02:36:37;;;;;;;2.10;1.40;;;;;;;;;;5020845;28;20292;-75
2023/04/03 02:39:05;;;;;;;1.57;1.27;;;;;;;;;;5029373;28;20208;-75
2023/04/03 02:41:35;;;;;;;1.53;1.37;;;;;;;;;;5018460;28;20209;-75
2023/04/03 02:44:02;;;;;;;2.50;1.40;;;;;;;;;;5022219;28;20208;-75
2023/04/03 02:46:29;;;;;;;2.73;1.50;;;;;;;;;;5029414;28;20196;-75
2023/04/03 02:48:56;;;;;;;2.20;1.70;;;;;;;;;;5019731;28;20228;-75
2023/04/03 02:51:23;;;;;;;1.93;1.50;;;;;;;;;;5020861;28;20216;-75
2023/04/03 02:53:50;;;;;;;1.30;1.20;;;;;;;;;;5021520;28;20254;-75
2023/04/03 02:56:19;;;;;;;1.87;1.40;;;;;;;;;;5016083;28;20216;-75
2023/04/03 02:58:47;;;;;;;2.93;1.30;;;;;;;;;;5019586;28;20294;-75
2023/04/03 03:01:14;;;;;;;2.40;1.43;;;;;;;;;;5021154;28;20271;-75
2023/04/03 03:03:42;;;;;;;2.07;1.40;;;;;;;;;;5021677;28;20223;-75
2023/04/03 03:06:10;;;;;;;1.30;1.20;;;;;;;;;;5021300;28;20215;-75
2023/04/03 03:08:37;;;;;;;3.57;1.30;;;;;;;;;;5021404;28;20205;-75
2023/04/03 03:11:04;;;;;;;1.47;1.37;;;;;;;;;;5025066;28;20222;-75
2023/04/03 03:13:32;;;;;;;3.10;1.60;;;;;;;;;;5024705;28;20589;-75
2023/04/03 03:16:00;;;;;;;2.10;1.43;;;;;;;;;;5020721;28;20213;-75
2023/04/03 03:18:27;;;;;;;2.13;1.40;;;;;;;;;;5018974;28;20205;-76
2023/04/03 03:20:55;;;;;;;1.23;1.13;;;;;;;;;;5021597;28;20205;-76
2023/04/03 03:23:23;;;;;;;2.27;1.33;;;;;;;;;;5022896;28;20228;-75
2023/04/03 03:25:50;;;;;;;1.60;1.37;;;;;;;;;;5021047;28;20211;-75
2023/04/03 03:28:17;;;;;;;1.27;1.17;;;;;;;;;;5017589;28;20354;-76
2023/04/03 03:30:44;;;;;;;1.93;1.40;;;;;;;;;;5020702;28;20224;-75
2023/04/03 03:33:13;;;;;;;1.10;1.03;;;;;;;;;;5018168;28;20203;-75
2023/04/03 03:35:40;;;;;;;1.27;1.17;;;;;;;;;;5022062;28;20200;-75
2023/04/03 03:38:07;;;;;;;2.60;1.20;;;;;;;;;;5020555;28;20211;-75
2023/04/03 03:40:34;;;;;;;1.20;1.07;;;;;;;;;;5024379;28;20211;-75
2023/04/03 03:43:01;;;;;;;1.83;1.40;;;;;;;;;;5022122;28;20205;-75
2023/04/03 03:45:28;;;;;;;1.50;1.30;;;;;;;;;;5016473;28;20224;-74
2023/04/03 03:47:55;;;;;;;1.80;1.30;;;;;;;;;;5017122;28;20205;-75
2023/04/03 03:50:24;;;;;;;2.13;1.50;;;;;;;;;;5023366;28;20224;-75
2023/04/03 03:52:51;;;;;;;2.00;1.30;;;;;;;;;;5023638;28;20311;-75
2023/04/03 03:55:18;;;;;;;3.30;1.67;;;;;;;;;;5017603;28;20212;-74
2023/04/03 03:57:45;;;;;;;1.43;1.10;;;;;;;;;;5024915;28;20208;-74
2023/04/03 04:00:13;;;;;;;1.50;1.30;;;;;;;;;;5022680;28;20215;-74
2023/04/03 04:02:40;;;;;;;2.93;1.50;;;;;;;;;;5023202;28;20201;-75
2023/04/03 04:05:07;;;;;;;3.13;1.67;;;;;;;;;;5024049;28;20201;-75
2023/04/03 04:07:36;;;;;;;2.77;1.70;;;;;;;;;;5028218;28;20215;-74
2023/04/03 04:10:03;;;;;;;1.40;1.30;;;;;;;;;;5021800;28;20236;-74
2023/04/03 04:12:30;;;;;;;1.73;1.43;;;;;;;;;;5021565;28;20205;-74
2023/04/03 04:14:57;;;;;;;2.60;1.53;;;;;;;;;;5019873;28;20219;-75
2023/04/03 04:17:24;;;;;;;2.10;1.40;;;;;;;;;;5021077;28;20208;-74
2023/04/03 04:19:52;;;;;;;1.30;1.20;;;;;;;;;;5023642;28;20208;-75
2023/04/03 04:22:19;;;;;;;1.27;1.17;;;;;;;;;;5019549;28;20201;-74
2023/04/03 04:24:47;;;;;;;2.27;1.33;;;;;;;;;;5018646;28;20204;-75
2023/04/03 04:27:15;;;;;;;2.87;1.30;;;;;;;;;;5024309;28;20232;-74
2023/04/03 04:29:42;;;;;;;2.20;1.40;;;;;;;;;;5016496;28;20252;-74
2023/04/03 04:32:09;;;;;;;1.30;1.20;;;;;;;;;;5024877;28;20204;-74
2023/04/03 04:34:37;;;;;;;1.97;1.20;;;;;;;;;;5018186;28;20213;-74
2023/04/03 04:37:04;;;;;;;1.83;1.40;;;;;;;;;;5023862;28;20212;-74
2023/04/03 04:39:31;;;;;;;1.10;1.10;;;;;;;;;;5021206;28;20270;-75
2023/04/03 04:41:59;;;;;;;2.03;1.37;;;;;;;;;;5019456;28;20219;-75
2023/04/03 04:44:26;;;;;;;2.50;1.60;;;;;;;;;;5019505;28;20304;-75
2023/04/03 04:46:54;;;;;;;3.23;1.40;;;;;;;;;;5020108;28;20215;-75
2023/04/03 04:49:21;;;;;;;2.73;1.57;;;;;;;;;;5018625;28;20231;-74
2023/04/03 04:51:48;;;;;;;1.40;1.23;;;;;;;;;;5020973;28;20200;-74
2023/04/03 04:54:15;;;;;;;3.97;1.50;;;;;;;;;;5022894;28;20204;-74
2023/04/03 04:56:42;;;;;;;2.73;1.40;;;;;;;;;;5019264;28;20244;-75
2023/04/03 04:59:11;;;;;;;2.20;1.50;;;;;;;;;;5018192;28;20196;-75
2023/04/03 05:01:38;;;;;;;1.57;1.20;;;;;;;;;;5018121;28;20219;-74
2023/04/03 05:04:05;;;;;;;2.10;1.30;;;;;;;;;;5018557;28;20208;-74
2023/04/03 05:06:32;;;;;;;2.77;1.60;;;;;;;;;;5021738;28;20251;-74
2023/04/03 05:08:59;;;;;;;1.73;1.23;;;;;;;;;;5020930;28;20212;-75
2023/04/03 05:11:27;;;;;;;2.97;1.53;;;;;;;;;;5016757;28;20227;-75
2023/04/03 05:13:54;;;;;;;1.93;1.27;;;;;;;;;;5023381;28;20211;-74
2023/04/03 05:16:22;;;;;;;1.90;1.20;;;;;;;;;;5019120;28;20227;-75
2023/04/03 05:18:49;;;;;;;2.07;1.40;;;;;;;;;;5020332;28;20219;-75
2023/04/03 05:21:18;;;;;;;1.30;1.20;;;;;;;;;;5020108;28;20200;-75
2023/04/03 05:23:45;;;;;;;1.50;1.40;;;;;;;;;;5026971;28;20258;-75
2023/04/03 05:26:12;;;;;;;2.10;1.20;;;;;;;;;;5019538;28;20200;-75
2023/04/03 05:28:39;;;;;;;2.70;1.20;;;;;;;;;;5015594;28;20232;-75
2023/04/03 05:31:06;;;;;;;2.20;1.20;;;;;;;;;;5016132;28;20231;-75
2023/04/03 05:33:34;;;;;;;1.97;1.40;;;;;;;;;;5020604;28;20227;-75
2023/04/03 05:36:04;;;;;;;2.07;1.50;;;;;;;;;;5016419;28;20220;-75
2023/04/03 05:38:31;;;;;;;1.57;1.20;;;;;;;;;;5018748;28;20294;-75
2023/04/03 05:40:58;;;;;;;2.47;1.50;;;;;;;;;;5021669;28;20201;-75
2023/04/03 05:43:25;;;;;;;1.63;1.50;;;;;;;;;;5021160;28;20207;-75
2023/04/03 05:45:53;;;;;;;1.67;1.30;;;;;;;;;;5013290;28;20208;-75
2023/04/03 05:48:20;;;;;;;2.50;1.60;;;;;;;;;;5019930;28;20196;-75
2023/04/03 05:50:48;;;;;;;3.10;1.40;;;;;;;;;;5022999;28;20231;-75
2023/04/03 05:53:18;;;;;;;1.50;1.40;;;;;;;;;;5019478;28;20208;-75
2023/04/03 05:55:45;;;;;;;3.20;1.50;;;;;;;;;;5021210;28;20227;-75
2023/04/03 05:58:12;;;;;;;2.57;1.57;;;;;;;;;;5018938;28;20208;-75
2023/04/03 06:00:39;;;;;;;2.13;1.70;;;;;;;;;;5021073;28;20201;-75
2023/04/03 06:03:07;;;;;;;2.47;1.83;;;;;;;;;;5016743;28;20224;-75
2023/04/03 06:05:34;;;;;;;3.50;1.67;;;;;;;;;;5019263;28;20206;-74
2023/04/03 06:08:03;;;;;;;3.07;2.00;;;;;;;;;;5017582;28;20229;-75
2023/04/03 06:10:30;;;;;;;2.10;1.90;;;;;;;;;;5023381;28;20228;-75
2023/04/03 06:12:57;;;;;;;1.83;1.53;;;;;;;;;;5024006;28;20215;-74
2023/04/03 06:15:24;;;;;;;1.73;1.30;;;;;;;;;;5024156;28;20212;-74
2023/04/03 06:17:52;;;;;;;3.07;1.80;;;;;;;;;;5020238;28;20212;-74
2023/04/03 06:20:19;;;;;;;3.00;1.53;;;;;;;;;;5017766;28;20209;-74
2023/04/03 06:22:46;;;;;;;3.90;1.70;;;;;;;;;;5027606;28;20208;-74
2023/04/03 06:25:14;;;;;;;4.30;2.60;;;;;;;;;;5023750;28;20212;-75
2023/04/03 06:27:43;;;;;;;3.33;1.97;;;;;;;;;;5017967;28;20240;-73
2023/04/03 06:30:10;;;;;;;2.60;1.80;;;;;;;;;;5020876;28;20227;-72
2023/04/03 06:32:37;;;;;;;2.20;2.00;;;;;;;;;;5021404;28;20287;-72
2023/04/03 06:35:05;;;;;;;2.93;1.90;;;;;;;;;;5023703;28;20196;-72
2023/04/03 06:37:32;;;;;;;3.63;1.77;;;;;;;;;;5022225;28;20207;-72
2023/04/03 06:40:03;;;;;;;4.23;1.97;;;;;;;;;;5021967;28;20205;-72
2023/04/03 06:42:31;;;;;;;2.00;1.33;;;;;;;;;;5024848;28;20212;-73
2023/04/03 06:44:58;;;;;;;4.13;1.70;;;;;;;;;;5020765;28;20211;-73
2023/04/03 06:47:25;;;;;;;3.60;1.80;;;;;;;;;;5022050;28;20209;-72
2023/04/03 06:49:52;;;;;;;4.67;2.93;;;;;;;;;;5023135;28;20211;-72
2023/04/03 06:52:20;;;;;;;4.90;2.60;;;;;;;;;;5018440;28;20216;-74
2023/04/03 06:54:48;;;;;;;5.10;2.60;;;;;;;;;;5024370;28;20243;-75
2023/04/03 06:57:15;;;;;;;4.03;2.10;;;;;;;;;;5024798;28;20223;-75
2023/04/03 06:59:43;;;;;;;6.83;3.30;;;;;;;;;;5028242;28;20216;-74
2023/04/03 07:02:12;;;;;;;6.10;3.47;;;;;;;;;;5021276;28;20214;-73
2023/04/03 07:04:39;;;;;;;4.53;2.53;;;;;;;;;;5020813;28;20205;-73
2023/04/03 07:07:06;;;;;;;3.77;2.57;;;;;;;;;;5022980;28;20217;-74
2023/04/03 07:09:33;;;;;;;4.97;2.93;;;;;;;;;;5020109;28;20205;-74
2023/04/03 07:12:00;;;;;;;3.70;1.80;;;;;;;;;;5023809;28;20244;-72
2023/04/03 07:14:27;;;;;;;2.13;1.40;;;;;;;;;;5021216;28;20337;-73
2023/04/03 07:16:56;;;;;;;2.67;1.30;;;;;;;;;;5021731;28;20196;-72
2023/04/03 07:19:24;;;;;;;2.90;1.47;;;;;;;;;;5025725;28;20205;-72
2023/04/03 07:21:51;;;;;;;1.80;1.57;;;;;;;;;;5018947;28;20201;-73
2023/04/03 07:24:18;;;;;;;2.27;1.50;;;;;;;;;;5016042;28;20205;-73
2023/04/03 07:26:46;;;;;;;2.50;1.60;;;;;;;;;;5020360;28;20208;-73
2023/04/03 07:29:13;;;;;;;2.63;1.50;;;;;;;;;;5023947;28;20204;-73
2023/04/03 07:31:41;;;;;;;2.37;1.40;;;;;;;;;;5023910;28;20217;-71
2023/04/03 07:34:09;;;;;;;3.63;1.60;;;;;;;;;;5023679;28;20215;-71
2023/04/03 07:36:37;;;;;;;4.43;1.80;;;;;;;;;;5021072;28;20208;-71
2023/04/03 07:39:04;;;;;;;3.67;1.50;;;;;;;;;;5020679;28;20351;-72
2023/04/03 07:41:31;;;;;;;2.27;1.27;;;;;;;;;;5019667;28;20210;-70
2023/04/03 07:43:58;;;;;;;1.43;1.20;;;;;;;;;;5021095;28;20213;-71
2023/04/03 07:46:26;;;;;;;2.50;1.37;;;;;;;;;;5019992;28;20208;-72
2023/04/03 07:48:53;;;;;;;2.63;1.80;;;;;;;;;;5021159;28;20320;-70
2023/04/03 07:51:21;;;;;;;5.03;1.83;;;;;;;;;;5022118;28;20224;-70
2023/04/03 07:53:48;;;;;;;4.13;2.00;;;;;;;;;;5016559;28;20212;-71
2023/04/03 07:56:16;;;;;;;2.77;1.50;;;;;;;;;;5020084;28;20205;-70
2023/04/03 07:58:43;;;;;;;3.73;1.50;;;;;;;;;;5018229;28;20204;-71
2023/04/03 08:01:10;;;;;;;2.90;1.60;;;;;;;;;;5018654;28;20211;-71
2023/04/03 08:03:37;;;;;;;4.83;2.20;;;;;;;;;;5021925;28;20215;-71
2023/04/03 08:06:05;;;;;;;3.27;1.53;;;;;;;;;;5021469;28;20265;-71
2023/04/03 08:08:34;;;;;;;3.23;1.60;;;;;;;;;;5022708;28;20208;-71
2023/04/03 08:11:02;;;;;;;2.47;1.40;;;;;;;;;;5018603;28;20229;-71
2023/04/03 08:13:30;;;;;;;2.07;1.50;;;;;;;;;;5019506;28;20207;-70
2023/04/03 08:15:58;;;;;;;3.73;1.60;;;;;;;;;;5020264;28;20204;-71
2023/04/03 08:18:26;;;;;;;2.30;1.70;;;;;;;;;;5020600;28;20334;-70
2023/04/03 08:20:53;;;;;;;3.20;1.73;;;;;;;;;;5023225;28;20208;-70
2023/04/03 08:23:21;;;;;;;3.43;2.00;;;;;;;;;;5017740;28;20212;-70
2023/04/03 08:25:49;;;;;;;3.17;1.90;;;;;;;;;;5020896;28;20260;-70
2023/04/03 08:28:16;;;;;;;5.17;2.37;;;;;;;;;;5019386;28;20264;-70
2023/04/03 08:30:43;;;;;;;4.53;2.37;;;;;;;;;;5019405;28;20220;-70
2023/04/03 08:33:11;;;;;;;3.43;2.00;;;;;;;;;;5016279;28;20216;-70
2023/04/03 08:35:40;;;;;;;4.17;2.03;;;;;;;;;;5020790;28;20211;-71
2023/04/03 08:38:07;;;;;;;2.20;2.00;;;;;;;;;;5026026;28;20210;-70
2023/04/03 08:40:34;;;;;;;4.40;1.80;;;;;;;;;;5025490;28;20204;-71
2023/04/03 08:43:12;;;;;;;3.03;1.70;;;;;;;;;;5022766;28;20212;-70
2023/04/03 08:45:44;;;;;;;3.00;1.47;;;;;;;;;;5019708;28;20205;-71
2023/04/03 08:48:13;;;;;;;2.07;1.60;;;;;;;;;;5020573;28;20271;-71
2023/04/03 08:50:41;;;;;;;2.67;1.30;;;;;;;;;;5020624;28;20231;-70
2023/04/03 08:53:12;;;;;;;2.10;1.40;;;;;;;;;;5017489;28;20211;-70
2023/04/03 08:55:41;;;;;;;2.50;1.53;;;;;;;;;;5022297;28;20204;-71
2023/04/03 08:58:13;;;;;;;5.57;1.60;;;;;;;;;;5023229;28;20213;-70
2023/04/03 09:00:45;;;;;;;2.53;1.63;;;;;;;;;;5021258;28;20215;-70
2023/04/03 09:03:13;;;;;;;3.57;1.63;;;;;;;;;;5019613;28;20263;-71
2023/04/03 09:05:42;;;;;;;3.47;1.60;;;;;;;;;;5017505;28;20209;-71
2023/04/03 09:08:14;;;;;;;2.70;1.50;;;;;;;;;;5025594;28;20244;-70
2023/04/03 09:10:42;;;;;;;2.60;1.17;;;;;;;;;;5019678;28;20236;-71
2023/04/03 09:13:15;;;;;;;2.80;1.60;;;;;;;;;;5018373;28;20204;-69
2023/04/03 09:15:42;;;;;;;1.90;1.40;;;;;;;;;;5024251;28;20271;-69
2023/04/03 09:18:14;;;;;;;2.50;1.50;;;;;;;;;;5021588;28;20204;-71
2023/04/03 09:20:45;;;;;;;5.00;2.30;;;;;;;;;;5023908;28;20304;-70
2023/04/03 09:23:16;;;;;;;4.43;2.40;;;;;;;;;;5020284;28;20201;-72
2023/04/03 09:25:45;;;;;;;4.50;2.00;;;;;;;;;;5022076;28;20231;-70
2023/04/03 09:28:13;;;;;;;4.53;2.40;;;;;;;;;;5019601;28;20229;-71
2023/04/03 09:30:41;;;;;;;4.47;2.30;;;;;;;;;;5020906;28;20298;-71
2023/04/03 09:33:08;;;;;;;3.47;2.00;;;;;;;;;;5019505;28;20220;-70
2023/04/03 09:35:36;;;;;;;3.60;2.10;;;;;;;;;;5016907;28;20207;-71
2023/04/03 09:38:15;;;;;;;3.07;2.20;;;;;;;;;;5015569;28;20205;-71
2023/04/03 09:40:43;;;;;;;2.20;1.50;;;;;;;;;;5019030;28;20199;-71
2023/04/03 09:43:23;;;;;;;2.47;1.83;;;;;;;;;;5016938;28;20291;-71
2023/04/03 09:45:51;;;;;;;2.03;1.70;;;;;;;;;;5016574;28;20201;-70
2023/04/03 09:48:19;;;;;;;3.40;2.10;;;;;;;;;;5018639;28;20216;-71
2023/04/03 09:51:01;;;;;;;2.40;2.00;;;;;;;;;;5023142;28;20260;-71
2023/04/03 09:53:30;;;;;;;1.93;1.47;;;;;;;;;;5024955;28;20207;-71
2023/04/03 09:55:57;;;;;;;2.60;1.77;;;;;;;;;;5019789;28;20223;-71
2023/04/03 09:58:27;;;;;;;2.13;1.60;;;;;;;;;;5018523;28;20204;-71
2023/04/03 10:00:58;;;;;;;3.13;1.63;;;;;;;;;;5023623;28;20215;-70
2023/04/03 10:03:27;;;;;;;2.00;1.73;;;;;;;;;;5024781;28;20203;-70
2023/04/03 10:05:55;;;;;;;3.43;1.90;;;;;;;;;;5024801;28;20274;-72
2023/04/03 10:08:23;;;;;;;1.77;1.60;;;;;;;;;;5029107;28;20200;-70
2023/04/03 10:11:07;;;;;;;2.37;1.53;;;;;;;;;;5024881;28;20208;-70
2023/04/03 10:13:35;;;;;;;2.00;1.70;;;;;;;;;;5022886;28;20291;-71
2023/04/03 10:16:05;;;;;;;1.97;1.57;;;;;;;;;;5021804;28;20200;-71
2023/04/03 10:18:38;;;;;;;3.50;1.60;;;;;;;;;;5020566;28;20286;-71
2023/04/03 10:21:07;;;;;;;1.97;1.50;;;;;;;;;;5022478;28;20270;-71
2023/04/03 10:23:41;;;;;;;15.07;8.17;;;;;;;;;;5021537;28;20272;-71
2023/04/03 10:26:12;;;;;;;4.63;2.47;;;;;;;;;;5025091;28;20200;-71
2023/04/03 10:28:43;;;;;;;4.93;2.50;;;;;;;;;;5026610;28;20235;-71
2023/04/03 10:31:15;;;;;;;2.87;2.20;;;;;;;;;;5023353;28;20200;-71
2023/04/03 10:33:49;;;;;;;3.17;2.00;;;;;;;;;;5020202;28;20299;-71
2023/04/03 10:36:21;;;;;;;2.43;1.80;;;;;;;;;;5021333;28;20220;-70
2023/04/03 10:38:52;;;;;;;3.50;2.00;;;;;;;;;;5016129;28;20213;-70
2023/04/03 10:41:26;;;;;;;1.70;1.60;;;;;;;;;;5023055;28;20207;-69
2023/04/03 10:43:58;;;;;;;2.60;1.30;;;;;;;;;;5021218;28;20224;-72
2023/04/03 10:46:29;;;;;;;2.83;1.77;;;;;;;;;;5021829;28;20216;-71
2023/04/03 10:49:14;;;;;;;3.23;1.57;;;;;;;;;;5019255;28;20266;-72
2023/04/03 10:51:43;;;;;;;2.17;1.70;;;;;;;;;;5021796;28;20223;-70
2023/04/03 10:54:13;;;;;;;1.60;1.50;;;;;;;;;;5020010;28;20209;-71
2023/04/03 10:56:42;;;;;;;1.40;1.30;;;;;;;;;;5018915;28;20238;-71
2023/04/03 10:59:24;;;;;;;2.93;1.60;;;;;;;;;;5021190;28;20212;-71
2023/04/03 11:01:54;;;;;;;3.27;1.50;;;;;;;;;;5024264;28;20196;-71
2023/04/03 11:04:22;;;;;;;1.80;1.50;;;;;;;;;;5024994;28;20200;-72
2023/04/03 11:06:51;;;;;;;1.70;1.30;;;;;;;;;;5025222;28;20218;-69
2023/04/03 11:09:21;;;;;;;3.20;1.60;;;;;;;;;;5021078;28;20208;-71
2023/04/03 11:11:49;;;;;;;2.87;1.90;;;;;;;;;;5028709;28;20232;-71
2023/04/03 11:14:23;;;;;;;2.50;1.80;;;;;;;;;;5020372;28;20211;-69
2023/04/03 11:16:55;;;;;;;2.80;1.50;;;;;;;;;;5020899;28;20208;-69
2023/04/03 11:19:24;;;;;;;4.13;2.17;;;;;;;;;;5019436;28;20204;-69
2023/04/03 11:21:56;;;;;;;3.87;2.00;;;;;;;;;;5019730;28;20288;-72
2023/04/03 11:24:25;;;;;;;2.13;1.53;;;;;;;;;;5018276;28;20204;-70
2023/04/03 11:26:53;;;;;;;2.60;1.77;;;;;;;;;;5016792;28;20212;-70
2023/04/03 11:29:23;;;;;;;4.70;2.37;;;;;;;;;;5017340;28;20213;-71
2023/04/03 11:32:02;;;;;;;2.50;1.60;;;;;;;;;;5024032;28;20226;-71
2023/04/03 11:34:36;;;;;;;3.77;1.90;;;;;;;;;;5021691;28;20200;-71
2023/04/03 11:37:05;;;;;;;3.17;1.60;;;;;;;;;;5025521;28;20276;-69
2023/04/03 11:39:34;;;;;;;2.73;1.83;;;;;;;;;;5027295;28;20208;-70
2023/04/03 11:42:15;;;;;;;2.30;1.30;;;;;;;;;;5025600;28;20208;-70
2023/04/03 11:44:42;;;;;;;2.50;1.60;;;;;;;;;;5022574;28;20247;-70
2023/04/03 11:47:11;;;;;;;2.57;1.80;;;;;;;;;;5022574;28;20220;-69
2023/04/03 11:49:52;;;;;;;2.20;1.40;;;;;;;;;;5021766;28;20220;-69
2023/04/03 11:52:35;;;;;;;1.70;1.33;;;;;;;;;;5017971;28;20216;-71
2023/04/03 11:55:02;;;;;;;3.00;1.97;;;;;;;;;;5018190;28;20231;-69
2023/04/03 11:57:48;;;;;;;2.10;1.40;;;;;;;;;;5021267;28;20200;-69
2023/04/03 12:00:35;;;;;;;2.33;1.60;;;;;;;;;;5022753;28;20200;-70
2023/04/03 12:03:03;;;;;;;3.10;1.40;;;;;;;;;;5019771;28;20211;-69
2023/04/03 12:05:31;;;;;;;3.43;1.87;;;;;;;;;;5019437;28;20212;-68
2023/04/03 12:08:17;;;;;;;2.63;2.00;;;;;;;;;;5022536;28;20243;-69
2023/04/03 12:10:44;;;;;;;1.93;1.30;;;;;;;;;;5025303;28;20243;-69
2023/04/03 12:13:17;;;;;;;2.87;1.87;;;;;;;;;;5018603;28;20239;-69
2023/04/03 12:15:54;;;;;;;1.77;1.20;;;;;;;;;;5021720;28;20208;-69
2023/04/03 12:18:51;;;;;;;2.10;1.30;;;;;;;;;;5019211;28;20207;-68
2023/04/03 12:21:21;;;;;;;2.40;1.40;;;;;;;;;;5022541;28;20208;-68
2023/04/03 12:24:05;;;;;;;3.67;1.90;;;;;;;;;;5019113;28;20207;-68
2023/04/03 12:26:35;;;;;;;3.00;1.67;;;;;;;;;;5018488;28;20209;-69
2023/04/03 12:29:12;;;;;;;1.73;1.40;;;;;;;;;;5020012;28;20205;-69
2023/04/03 12:31:45;;;;;;;1.98;1.45;;;;;;;;;;5020236;28;20236;-69
2023/04/03 12:34:26;;;;;;;4.93;1.60;;;;;;;;;;5021546;28;20208;-69
2023/04/03 12:37:00;;;;;;;2.88;1.33;;;;;;;;;;5014297;28;20290;-69
2023/04/03 12:39:44;;;;;;;2.08;1.63;;;;;;;;;;5021631;28;20211;-68
2023/04/03 12:42:20;;;;;;;4.60;2.00;;;;;;;;;;5018807;28;20201;-68
2023/04/03 12:44:51;;;;;;;2.25;1.30;;;;;;;;;;5012324;28;20208;-68
2023/04/03 12:47:23;;;;;;;2.17;1.40;;;;;;;;;;5013704;28;20275;-68
2023/04/03 12:49:51;;;;;;;2.67;1.50;;;;;;;;;;5020578;28;20204;-68
2023/04/03 12:52:25;;;;;;;2.22;1.40;;;;;;;;;;5022256;28;20228;-68
2023/04/03 12:54:53;;;;;;;3.65;1.55;;;;;;;;;;5019071;28;20214;-68
2023/04/03 12:57:20;;;;;;;1.92;1.40;;;;;;;;;;5023311;28;20299;-68
2023/04/03 12:59:48;;;;;;;2.95;1.90;;;;;;;;;;5022296;28;20204;-68
2023/04/03 13:02:25;;;;;;;2.60;1.67;;;;;;;;;;5022975;28;20303;-68
2023/04/03 13:04:54;;;;;;;2.28;1.38;;;;;;;;;;5015849;28;20204;-69
2023/04/03 13:07:28;;;;;;;2.05;1.48;;;;;;;;;;5017298;28;20214;-69
2023/04/03 13:10:00;;;;;;;3.65;2.08;;;;;;;;;;5017675;28;20206;-69
2023/04/03 13:12:27;;;;;;;3.25;1.63;;;;;;;;;;5019307;28;20223;-69
2023/04/03 13:14:55;;;;;;;3.42;1.35;;;;;;;;;;5022169;28;20208;-69
2023/04/03 13:17:25;;;;;;;2.03;1.30;;;;;;;;;;5020541;28;20239;-69
2023/04/03 13:19:52;;;;;;;1.50;1.30;;;;;;;;;;5019317;28;20235;-68
2023/04/03 13:22:28;;;;;;;2.45;1.58;;;;;;;;;;5022100;28;20215;-69
2023/04/03 13:24:56;;;;;;;2.13;1.20;;;;;;;;;;5013834;28;20206;-67
2023/04/03 13:27:23;;;;;;;2.25;1.48;;;;;;;;;;5016763;28;20229;-68
2023/04/03 13:29:52;;;;;;;2.55;1.20;;;;;;;;;;5023499;28;20196;-68
2023/04/03 13:32:21;;;;;;;2.70;1.40;;;;;;;;;;5020935;28;20228;-69
2023/04/03 13:34:48;;;;;;;2.88;1.63;;;;;;;;;;5018470;28;20211;-68
2023/04/03 13:37:22;;;;;;;2.15;1.20;;;;;;;;;;5015908;28;20208;-69
2023/04/03 13:39:59;;;;;;;1.55;1.15;;;;;;;;;;5021296;28;20206;-68
2023/04/03 13:42:29;;;;;;;2.30;1.33;;;;;;;;;;5019165;28;20201;-69
2023/04/03 13:45:11;;;;;;;2.80;1.20;;;;;;;;;;5018795;28;20232;-69
2023/04/03 13:47:40;;;;;;;1.40;1.25;;;;;;;;;;5018907;28;20205;-68
2023/04/03 13:50:15;;;;;;;2.25;1.40;;;;;;;;;;5020145;28;20209;-68
2023/04/03 13:52:44;;;;;;;1.95;1.30;;;;;;;;;;5018154;28;20236;-69
2023/04/03 13:55:24;;;;;;;1.30;1.20;;;;;;;;;;5014871;28;20215;-69
2023/04/03 13:57:55;;;;;;;1.80;1.23;;;;;;;;;;5017495;28;20196;-68
2023/04/03 14:00:29;;;;;;;2.63;1.40;;;;;;;;;;5020491;28;20212;-69
2023/04/03 14:02:57;;;;;;;1.60;1.50;;;;;;;;;;5016203;28;20207;-69
2023/04/03 14:05:25;;;;;;;2.03;1.60;;;;;;;;;;5019642;28;20274;-68
2023/04/03 14:07:52;;;;;;;2.30;1.67;;;;;;;;;;5024113;28;20290;-70
2023/04/03 14:10:19;;;;;;;2.63;1.50;;;;;;;;;;5017494;28;20385;-70
2023/04/03 14:12:48;;;;;;;4.33;1.20;;;;;;;;;;5016970;28;20231;-70
2023/04/03 14:15:19;;;;;;;2.80;1.47;;;;;;;;;;5016007;28;20214;-70
2023/04/03 14:17:46;;;;;;;2.85;1.48;;;;;;;;;;5019915;28;20204;-68
2023/04/03 14:20:16;;;;;;;3.55;1.25;;;;;;;;;;5017325;28;20211;-68
2023/04/03 14:22:43;;;;;;;1.73;1.20;;;;;;;;;;5019287;28;20208;-68
2023/04/03 14:25:11;;;;;;;2.20;1.30;;;;;;;;;;5015942;28;20212;-68
2023/04/03 14:27:40;;;;;;;3.75;1.20;;;;;;;;;;5023810;28;20232;-68
2023/04/03 14:30:10;;;;;;;5.70;1.33;;;;;;;;;;5020694;28;20231;-68
2023/04/03 14:32:37;;;;;;;3.25;1.33;;;;;;;;;;5024350;28;20228;-70
2023/04/03 14:35:05;;;;;;;1.35;0.98;;;;;;;;;;5020450;28;20216;-69
2023/04/03 14:37:33;;;;;;;2.00;1.20;;;;;;;;;;5021658;28;20208;-69
2023/04/03 14:40:01;;;;;;;2.85;1.30;;;;;;;;;;5020103;28;20212;-68
2023/04/03 14:42:30;;;;;;;4.47;1.33;;;;;;;;;;5022390;28;20231;-68
2023/04/03 14:44:58;;;;;;;3.00;1.70;;;;;;;;;;5021031;28;20212;-70
2023/04/03 14:47:28;;;;;;;1.40;1.20;;;;;;;;;;5023584;28;20204;-68
2023/04/03 14:49:55;;;;;;;2.53;1.50;;;;;;;;;;5019485;28;20212;-69
2023/04/03 14:52:23;;;;;;;2.77;1.70;;;;;;;;;;5018526;28;20208;-68
2023/04/03 14:54:51;;;;;;;2.17;1.30;;;;;;;;;;5020340;28;20208;-69